Accueil
METAR-TAF:

METAR-TAF

Aéroports :

Eastmain, Québec, Canada

latitude: 52-14N, longitude: 078-31W, altitude: 7 m

Observation

Le bulletin a été fait il y a 5 heures et 42 minutes, à 20:00 UTC
Vent 5 kt de ouest/nord-ouest, variant entre ouest et nord
Température 8°C
Humidité 71%
Pression 1013 hPa
Visibilité: 24.1 km
Nuages fragmentés à une hauteur de 5600 ft
Ciel couvert à une hauteur de 7000 ft

METAR: CZEM 232000Z 30005KT 280V010 15SM BKN056 OVC070 08/03 A2990 RMK SC5AC3 LAST STFD OBS/NEXT 241300 UTC SLP128

Heure: 21:42 (01:42 UTC)


TAF: absent

Observations et prévisions météorologiques de plus de 4000 aéroports (messages METAR et TAF).

Les stations disponibles sont représentées par des disques jaunes et rouges sur la carte.

Passer la souris dessus pour voir le nom de la station.

Cliquer dessus pour voir les observations et prévisions météorologiques.

Pour changer de carte: cliquez sur les boutons verts avec une croix noire pour zoomer, sur le bouton vert avec un tiret pour effectuer un zoom arrière, ou sur les flèches vertes pour les cartes adjacentes.


METAR-TAF: